Terminal Aerodrome Forecast
Issued by NWS Sioux Falls, SD

Home | Current Version | Previous Version | Graphics & Text | Print | Product List | Glossary Off
Versions: 1 2 3 4 5 6 7 8 9 10 11 12 13 14 15

000
FTUS43 KFSD 280536
TAFFSD
TAF
KFSD 280536Z 2806/2906 02006KT P6SM SCT120 BKN250
     FM281000 36004KT P6SM BKN110
     FM281700 02008KT P6SM BKN090
     FM290000 05006KT P6SM BKN060=

USA.gov is the U.S. government's official web portal to all federal, state and local government web resources and services.